createdAt,value
2022-11-19T00:01:06.232Z,92772.74
2022-11-19T00:02:09.751Z,92775.31
2022-11-19T00:03:17.125Z,92775.56
2022-11-19T00:04:20.650Z,92781.42
2022-11-19T00:05:23.753Z,92775.84
2022-11-19T00:06:27.863Z,92775.48
2022-11-19T00:07:30.964Z,92774.13
2022-11-19T00:08:34.237Z,92775.24
2022-11-19T00:09:37.384Z,92769.17
2022-11-19T00:10:40.582Z,92774.66
2022-11-19T00:12:02.607Z,92772.80
2022-11-19T00:13:07.131Z,92773.15
2022-11-19T00:14:19.741Z,92773.90
2022-11-19T00:15:23.809Z,92772.88
2022-11-19T00:16:29.707Z,92777.41
2022-11-19T00:17:32.836Z,92770.20
2022-11-19T00:18:39.035Z,92774.30
2022-11-19T00:19:42.602Z,92781.92
2022-11-19T00:20:45.791Z,92780.61
2022-11-19T00:21:50.296Z,92780.77
2022-11-19T00:22:54.522Z,92782.53
2022-11-19T00:23:58.125Z,92787.97
2022-11-19T00:25:01.395Z,92784.90
2022-11-19T00:26:08.784Z,92788.96
2022-11-19T00:27:11.927Z,92787.89
2022-11-19T00:28:15.067Z,92784.25
2022-11-19T00:29:18.395Z,92787.95
2022-11-19T00:30:46.524Z,92791.15
2022-11-19T00:31:44.841Z,92789.09
2022-11-19T00:32:50.756Z,92787.45
2022-11-19T00:33:54.853Z,92786.10
2022-11-19T00:34:58.237Z,92787.89
2022-11-19T00:36:01.859Z,92790.13
2022-11-19T00:37:05.056Z,92786.98
2022-11-19T00:38:08.125Z,92788.06
2022-11-19T00:39:11.182Z,92793.86
2022-11-19T00:40:14.367Z,92794.66
2022-11-19T00:41:17.567Z,92792.50
2022-11-19T00:42:21.115Z,92792.30
2022-11-19T00:43:43.180Z,92795.18
2022-11-19T00:44:46.339Z,92797.12
2022-11-19T00:45:50.459Z,92800.98
2022-11-19T00:46:53.579Z,92802.86
2022-11-19T00:47:56.611Z,92804.23
2022-11-19T00:49:00.432Z,92805.47
2022-11-19T00:50:03.601Z,92802.73
2022-11-19T00:51:07.726Z,92806.95
2022-11-19T00:52:10.981Z,92806.27
2022-11-19T00:53:14.477Z,92813.92
2022-11-19T00:54:17.865Z,92813.95
2022-11-19T00:55:21.326Z,92819.41
2022-11-19T00:56:25.397Z,92819.31
2022-11-19T00:57:28.612Z,92818.83
2022-11-19T00:58:31.680Z,92816.91
2022-11-19T00:59:34.867Z,92823.41
2022-11-19T01:00:39.096Z,92821.23
2022-11-19T01:01:42.532Z,92828.41
2022-11-19T01:02:45.590Z,92831.44
2022-11-19T01:03:49.089Z,92832.88
2022-11-19T01:04:52.467Z,92830.77
2022-11-19T01:05:55.714Z,92834.37
2022-11-19T01:06:59.023Z,92839.80
2022-11-19T01:08:02.356Z,92840.84
2022-11-19T01:09:05.339Z,92840.61
2022-11-19T01:10:08.936Z,92842.16
2022-11-19T01:11:14.529Z,92839.89
2022-11-19T01:12:17.775Z,92844.36
2022-11-19T01:13:36.282Z,92845.20
2022-11-19T01:14:39.459Z,92847.96
2022-11-19T01:15:42.646Z,92846.71
2022-11-19T01:16:45.843Z,92847.52
2022-11-19T01:17:49.031Z,92848.35
2022-11-19T01:18:53.130Z,92847.00
2022-11-19T01:19:56.276Z,92847.45
2022-11-19T01:20:59.513Z,92846.35
2022-11-19T01:22:02.696Z,92847.14
2022-11-19T01:23:05.841Z,92848.93
2022-11-19T01:24:08.902Z,92852.58
2022-11-19T01:25:13.321Z,92849.00
2022-11-19T01:26:17.146Z,92855.52
2022-11-19T01:27:20.257Z,92858.30
2022-11-19T01:28:23.399Z,92859.83
2022-11-19T01:29:26.624Z,92859.79
2022-11-19T01:30:30.186Z,92862.33
2022-11-19T01:31:33.298Z,92858.75
2022-11-19T01:32:36.411Z,92857.11
2022-11-19T01:33:41.748Z,92861.22
2022-11-19T01:34:44.996Z,92861.50
2022-11-19T01:35:55.230Z,92862.73
2022-11-19T01:36:58.439Z,92860.65
2022-11-19T01:38:02.188Z,92862.87
2022-11-19T01:39:05.381Z,92864.78
2022-11-19T01:40:08.872Z,92865.83
2022-11-19T01:41:12.309Z,92862.96
2022-11-19T01:42:39.560Z,92867.61
2022-11-19T01:43:43.086Z,92867.63
2022-11-19T01:45:05.833Z,92868.05
2022-11-19T01:46:09.794Z,92872.31
2022-11-19T01:47:13.476Z,92879.92
2022-11-19T01:48:19.621Z,92876.58
2022-11-19T01:49:25.498Z,92882.38
2022-11-19T01:50:31.148Z,92882.03
2022-11-19T01:51:51.362Z,92878.70
2022-11-19T01:52:54.974Z,92878.13
2022-11-19T01:54:00.353Z,92878.89
2022-11-19T01:55:03.722Z,92878.42
2022-11-19T01:56:08.090Z,92879.07
2022-11-19T01:57:14.207Z,92878.56
2022-11-19T01:58:19.492Z,92875.98
2022-11-19T01:59:23.374Z,92875.81
2022-11-19T02:00:27.298Z,92876.11
2022-11-19T02:01:33.094Z,92871.43
2022-11-19T02:02:36.397Z,92874.45
2022-11-19T02:03:40.522Z,92872.73
2022-11-19T02:04:43.761Z,92868.86
2022-11-19T02:05:47.591Z,92871.46
2022-11-19T02:06:52.680Z,92878.05
2022-11-19T02:07:57.596Z,92877.79
2022-11-19T02:09:00.774Z,92876.09
2022-11-19T02:10:05.857Z,92876.65
2022-11-19T02:11:27.647Z,92881.91
2022-11-19T02:12:48.397Z,92879.36
2022-11-19T02:13:54.382Z,92883.85
2022-11-19T02:15:06.003Z,92885.11
2022-11-19T02:16:15.049Z,92887.09
2022-11-19T02:17:32.006Z,92892.82
2022-11-19T02:18:37.997Z,92892.23
2022-11-19T02:20:01.012Z,92894.90
2022-11-19T02:21:18.581Z,92898.45
2022-11-19T02:22:25.622Z,92898.23
2022-11-19T02:23:28.723Z,92902.89
2022-11-19T02:24:55.933Z,92900.48
2022-11-19T02:26:11.211Z,92905.24
2022-11-19T02:27:39.468Z,92905.20
2022-11-19T02:28:52.829Z,92901.95
2022-11-19T02:30:10.066Z,92892.70
2022-11-19T02:31:16.261Z,92907.25
2022-11-19T02:32:22.561Z,92901.48
2022-11-19T02:33:44.531Z,92904.65
2022-11-19T02:34:51.527Z,92913.46
2022-11-19T02:36:12.910Z,92912.17
2022-11-19T02:37:26.547Z,92917.14
2022-11-19T02:38:34.010Z,92912.85
2022-11-19T02:39:37.156Z,92913.96
2022-11-19T02:40:56.772Z,92912.29
2022-11-19T02:42:04.462Z,92910.50
2022-11-19T02:43:23.283Z,92904.91
2022-11-19T02:44:51.799Z,92907.08
2022-11-19T02:46:13.360Z,92911.82
2022-11-19T02:47:19.522Z,92914.17
2022-11-19T02:48:25.851Z,92915.56
2022-11-19T02:49:31.760Z,92918.27
2022-11-19T02:50:40.381Z,92920.05
2022-11-19T02:51:43.641Z,92919.14
2022-11-19T02:52:47.670Z,92916.11
2022-11-19T02:53:50.817Z,92917.83
2022-11-19T02:54:54.092Z,92916.48
2022-11-19T02:56:12.790Z,92922.35
2022-11-19T02:57:16.203Z,92924.09
2022-11-19T02:58:40.836Z,92922.27
2022-11-19T03:00:12.243Z,92924.90
2022-11-19T03:01:34.343Z,92925.48
2022-11-19T03:03:09.203Z,92923.17
2022-11-19T03:04:31.133Z,92923.54
2022-11-19T03:05:36.384Z,92928.05
2022-11-19T03:06:39.845Z,92930.13
2022-11-19T03:07:43.028Z,92926.78
2022-11-19T03:08:46.918Z,92928.98
2022-11-19T03:09:53.191Z,92936.53
2022-11-19T03:10:56.276Z,92940.20
2022-11-19T03:12:22.754Z,92943.45
2022-11-19T03:13:47.483Z,92941.20
2022-11-19T03:15:15.512Z,92950.42
2022-11-19T03:16:42.121Z,92950.90
2022-11-19T03:18:00.706Z,92948.71
2022-11-19T03:19:11.357Z,92949.12
2022-11-19T03:20:26.642Z,92949.32
2022-11-19T03:21:35.681Z,92952.90
2022-11-19T03:22:57.361Z,92957.84
2022-11-19T03:24:05.567Z,92954.52
2022-11-19T03:25:12.701Z,92957.48
2022-11-19T03:26:38.815Z,92959.70
2022-11-19T03:27:43.026Z,92958.20
2022-11-19T03:28:46.829Z,92962.77
2022-11-19T03:29:51.992Z,92963.84
2022-11-19T03:30:56.159Z,92962.78
2022-11-19T03:32:03.302Z,92963.89
2022-11-19T03:33:12.033Z,92967.83
2022-11-19T03:34:18.766Z,92968.94
2022-11-19T03:35:34.298Z,92966.40
2022-11-19T03:36:39.376Z,92971.80
2022-11-19T03:37:43.766Z,92968.94
2022-11-19T03:38:49.431Z,92970.65
2022-11-19T03:39:55.947Z,92971.02
2022-11-19T03:41:00.697Z,92974.94
2022-11-19T03:42:05.701Z,92974.83
2022-11-19T03:43:10.733Z,92977.17
2022-11-19T03:44:14.197Z,92976.34
2022-11-19T03:45:21.138Z,92981.41
2022-11-19T03:46:26.646Z,92989.33
2022-11-19T03:47:35.676Z,92989.41
2022-11-19T03:48:43.060Z,92988.08
2022-11-19T03:49:48.604Z,92993.23
2022-11-19T03:50:53.711Z,92993.75
2022-11-19T03:52:00.012Z,92998.11
2022-11-19T03:53:04.692Z,92998.31
2022-11-19T03:54:08.671Z,92995.27
2022-11-19T03:55:12.147Z,92994.36
2022-11-19T03:56:18.438Z,92995.23
2022-11-19T03:57:23.745Z,92995.02
2022-11-19T03:58:27.037Z,92999.92
2022-11-19T03:59:30.641Z,93001.42
2022-11-19T04:00:34.022Z,92998.85
2022-11-19T04:01:37.702Z,93001.63
2022-11-19T04:02:43.511Z,93000.43
2022-11-19T04:04:06.551Z,92995.83
2022-11-19T04:05:09.772Z,92995.59
2022-11-19T04:06:13.358Z,92994.69
2022-11-19T04:07:18.006Z,92997.98
2022-11-19T04:08:21.282Z,93002.05
2022-11-19T04:09:26.254Z,93004.90
2022-11-19T04:10:29.522Z,93008.84
2022-11-19T04:11:32.703Z,93010.30
2022-11-19T04:12:35.727Z,93010.70
2022-11-19T04:13:38.786Z,93011.23
2022-11-19T04:14:41.968Z,93007.50
2022-11-19T04:15:45.245Z,93008.79
2022-11-19T04:16:48.322Z,93005.92
2022-11-19T04:17:51.372Z,93006.40
2022-11-19T04:18:57.749Z,93010.30
2022-11-19T04:20:01.839Z,93009.23
2022-11-19T04:21:05.521Z,93013.58
2022-11-19T04:22:08.771Z,93014.48
2022-11-19T04:23:12.104Z,93015.73
2022-11-19T04:24:16.102Z,93013.11
2022-11-19T04:25:19.332Z,93013.75
2022-11-19T04:26:22.708Z,93010.06
2022-11-19T04:27:25.884Z,93012.14
2022-11-19T04:28:29.018Z,93009.12
2022-11-19T04:29:33.261Z,93005.95
2022-11-19T04:30:36.573Z,93006.14
2022-11-19T04:31:40.028Z,93003.92
2022-11-19T04:32:43.481Z,93007.83
2022-11-19T04:33:46.563Z,93007.98
2022-11-19T04:34:49.781Z,93007.61
2022-11-19T04:35:53.134Z,93010.86
2022-11-19T04:36:56.281Z,93007.48
2022-11-19T04:37:59.427Z,93010.23
2022-11-19T04:39:03.854Z,93010.02
2022-11-19T04:40:07.271Z,93011.18
2022-11-19T04:41:10.419Z,93010.39
2022-11-19T04:42:13.721Z,93011.98
2022-11-19T04:43:16.797Z,93011.36
2022-11-19T04:44:21.347Z,93006.96
2022-11-19T04:45:24.471Z,93009.83
2022-11-19T04:46:27.660Z,93007.63
2022-11-19T04:47:32.641Z,93007.05
2022-11-19T04:48:35.767Z,93006.73
2022-11-19T04:49:38.861Z,93010.27
2022-11-19T04:50:42.351Z,93005.27
2022-11-19T04:51:45.417Z,93007.36
2022-11-19T04:52:48.457Z,93010.30
2022-11-19T04:53:51.837Z,93009.64
2022-11-19T04:54:55.080Z,93013.13
2022-11-19T04:55:58.269Z,93016.70
2022-11-19T04:57:01.351Z,93017.27
2022-11-19T04:58:04.596Z,93017.22
2022-11-19T04:59:07.950Z,93020.48
2022-11-19T05:00:11.325Z,93020.91
2022-11-19T05:01:14.725Z,93022.27
2022-11-19T05:02:17.911Z,93023.34
2022-11-19T05:03:21.161Z,93022.34
2022-11-19T05:04:24.352Z,93023.77
2022-11-19T05:05:27.689Z,93025.37
2022-11-19T05:06:30.996Z,93026.02
2022-11-19T05:07:34.179Z,93024.81
2022-11-19T05:08:37.374Z,93026.88
2022-11-19T05:09:42.548Z,93026.32
2022-11-19T05:10:45.647Z,93032.92
2022-11-19T05:11:48.920Z,93030.64
2022-11-19T05:12:52.226Z,93035.69
2022-11-19T05:13:55.367Z,93038.86
2022-11-19T05:14:58.592Z,93034.17
2022-11-19T05:16:02.067Z,93036.05
2022-11-19T05:17:05.340Z,93037.72
2022-11-19T05:18:08.651Z,93038.17
2022-11-19T05:19:11.792Z,93043.53
2022-11-19T05:20:15.450Z,93045.27
2022-11-19T05:21:18.616Z,93044.96
2022-11-19T05:22:21.961Z,93048.80
2022-11-19T05:23:25.774Z,93046.16
2022-11-19T05:24:28.876Z,93050.04
2022-11-19T05:25:32.017Z,93049.31
2022-11-19T05:26:35.101Z,93049.01
2022-11-19T05:27:38.436Z,93050.88
2022-11-19T05:28:41.617Z,93053.59
2022-11-19T05:29:44.751Z,93055.23
2022-11-19T05:30:47.922Z,93058.66
2022-11-19T05:31:51.257Z,93059.02
2022-11-19T05:32:54.446Z,93059.06
2022-11-19T05:33:57.526Z,93062.52
2022-11-19T05:35:00.768Z,93062.35
2022-11-19T05:36:03.945Z,93065.38
2022-11-19T05:37:07.027Z,93066.80
2022-11-19T05:38:10.248Z,93069.59
2022-11-19T05:39:16.233Z,93071.09
2022-11-19T05:40:24.632Z,93068.81
2022-11-19T05:41:27.908Z,93073.13
2022-11-19T05:42:31.103Z,93075.71
2022-11-19T05:43:34.213Z,93075.82
2022-11-19T05:44:37.482Z,93078.94
2022-11-19T05:45:40.672Z,93076.11
2022-11-19T05:46:44.044Z,93074.55
2022-11-19T05:47:48.797Z,93073.83
2022-11-19T05:48:52.016Z,93073.63
2022-11-19T05:49:57.431Z,93071.70
2022-11-19T05:51:00.818Z,93077.38
2022-11-19T05:52:04.060Z,93079.73
2022-11-19T05:53:10.673Z,93085.70
2022-11-19T05:54:14.050Z,93085.59
2022-11-19T05:55:17.159Z,93082.14
2022-11-19T05:56:20.333Z,93081.26
2022-11-19T05:57:24.031Z,93083.48
2022-11-19T05:58:27.068Z,93079.06
2022-11-19T05:59:30.401Z,93082.89
2022-11-19T06:00:35.661Z,93080.57
2022-11-19T06:01:38.792Z,93082.45
2022-11-19T06:02:42.036Z,93087.23
2022-11-19T06:03:45.454Z,93083.14
2022-11-19T06:04:48.565Z,93086.01
2022-11-19T06:05:52.122Z,93088.36
2022-11-19T06:06:55.319Z,93088.80
2022-11-19T06:08:01.641Z,93086.92
2022-11-19T06:09:04.840Z,93086.89
2022-11-19T06:10:08.491Z,93089.11
2022-11-19T06:11:31.792Z,93088.36
2022-11-19T06:12:34.970Z,93088.80
2022-11-19T06:13:38.163Z,93095.02
2022-11-19T06:14:42.158Z,93093.44
2022-11-19T06:15:45.449Z,93096.86
2022-11-19T06:16:49.611Z,93095.58
2022-11-19T06:17:52.808Z,93096.36
2022-11-19T06:18:56.176Z,93093.16
2022-11-19T06:19:59.338Z,93090.65
2022-11-19T06:21:02.547Z,93088.15
2022-11-19T06:22:08.166Z,93082.60
2022-11-19T06:23:11.192Z,93093.27
2022-11-19T06:24:14.955Z,93098.16
2022-11-19T06:25:18.368Z,93102.77
2022-11-19T06:26:28.724Z,93106.84
2022-11-19T06:27:31.918Z,93108.71
2022-11-19T06:28:35.087Z,93107.13
2022-11-19T06:29:38.388Z,93108.92
2022-11-19T06:30:41.561Z,93108.23
2022-11-19T06:31:44.833Z,93108.48
2022-11-19T06:32:48.043Z,93112.21
2022-11-19T06:33:53.693Z,93114.95
2022-11-19T06:34:56.856Z,93113.76
2022-11-19T06:36:00.054Z,93113.64
2022-11-19T06:37:03.287Z,93114.25
2022-11-19T06:38:06.556Z,93114.12
2022-11-19T06:39:09.819Z,93118.89
2022-11-19T06:40:13.753Z,93111.94
2022-11-19T06:41:17.134Z,93112.47
2022-11-19T06:42:38.844Z,93112.23
2022-11-19T06:43:43.337Z,93115.36
2022-11-19T06:44:49.616Z,93117.34
2022-11-19T06:45:54.485Z,93116.16
2022-11-19T06:46:57.619Z,93120.00
2022-11-19T06:48:00.736Z,93118.19
2022-11-19T06:49:05.985Z,93120.65
2022-11-19T06:50:10.291Z,93117.51
2022-11-19T06:51:13.567Z,93115.02
2022-11-19T06:52:16.762Z,93115.25
2022-11-19T06:53:20.063Z,93117.52
2022-11-19T06:54:23.368Z,93114.39
2022-11-19T06:55:27.717Z,93114.80
2022-11-19T06:56:30.937Z,93112.95
2022-11-19T06:57:34.136Z,93110.97
2022-11-19T06:58:37.808Z,93111.08
2022-11-19T06:59:41.205Z,93111.55
2022-11-19T07:00:44.479Z,93113.15
2022-11-19T07:01:47.810Z,93119.08
2022-11-19T07:02:51.594Z,93118.44
2022-11-19T07:03:54.768Z,93123.44
2022-11-19T07:04:57.857Z,93125.74
2022-11-19T07:06:03.312Z,93130.59
2022-11-19T07:07:06.873Z,93138.77
2022-11-19T07:08:10.136Z,93139.88
2022-11-19T07:09:13.456Z,93143.46
2022-11-19T07:10:16.819Z,93145.02
2022-11-19T07:11:26.107Z,93143.80
2022-11-19T07:12:31.901Z,93149.61
2022-11-19T07:13:53.578Z,93143.20
2022-11-19T07:15:02.663Z,93147.80
2022-11-19T07:16:07.389Z,93150.40
2022-11-19T07:17:13.181Z,93151.08
2022-11-19T07:18:16.477Z,93154.89
2022-11-19T07:19:20.061Z,93154.46
2022-11-19T07:20:23.531Z,93153.16
2022-11-19T07:21:27.232Z,93154.51
2022-11-19T07:22:30.571Z,93151.48
2022-11-19T07:23:33.718Z,93152.17
2022-11-19T07:24:36.906Z,93152.41
2022-11-19T07:25:40.087Z,93154.06
2022-11-19T07:26:43.217Z,93151.61
2022-11-19T07:27:49.901Z,93155.37
2022-11-19T07:28:53.193Z,93154.79
2022-11-19T07:29:57.496Z,93154.00
2022-11-19T07:31:04.732Z,93155.27
2022-11-19T07:32:08.353Z,93154.02
2022-11-19T07:33:11.493Z,93150.39
2022-11-19T07:34:14.862Z,93150.11
2022-11-19T07:35:18.087Z,93154.98
2022-11-19T07:36:21.583Z,93154.66
2022-11-19T07:37:24.867Z,93155.54
2022-11-19T07:38:31.571Z,93155.98
2022-11-19T07:39:38.910Z,93154.46
2022-11-19T07:40:42.200Z,93152.91
2022-11-19T07:42:03.667Z,93158.50
2022-11-19T07:43:10.219Z,93162.30
2022-11-19T07:44:14.398Z,93164.05
2022-11-19T07:45:21.955Z,93164.34
2022-11-19T07:46:28.023Z,93163.55
2022-11-19T07:47:31.184Z,93166.28
2022-11-19T07:48:34.477Z,93160.61
2022-11-19T07:49:37.801Z,93161.79
2022-11-19T07:50:41.358Z,93161.11
2022-11-19T07:51:44.910Z,93160.14
2022-11-19T07:52:48.132Z,93155.02
2022-11-19T07:53:51.757Z,93153.61
2022-11-19T07:54:55.582Z,93150.06
2022-11-19T07:56:02.147Z,93150.13
2022-11-19T07:57:05.281Z,93149.08
2022-11-19T07:58:08.376Z,93153.30
2022-11-19T07:59:11.632Z,93151.86
2022-11-19T08:00:15.097Z,93154.86
2022-11-19T08:01:20.226Z,93153.47
2022-11-19T08:02:23.685Z,93149.80
2022-11-19T08:03:26.923Z,93147.67
2022-11-19T08:04:30.107Z,93146.89
2022-11-19T08:05:33.413Z,93150.38
2022-11-19T08:06:36.726Z,93151.19
2022-11-19T08:07:39.991Z,93150.94
2022-11-19T08:08:44.386Z,93152.95
2022-11-19T08:09:47.493Z,93150.56
2022-11-19T08:10:50.768Z,93152.04
2022-11-19T08:11:53.983Z,93152.52
2022-11-19T08:13:15.496Z,93149.37
2022-11-19T08:14:18.757Z,93152.03
2022-11-19T08:15:22.092Z,93147.87
2022-11-19T08:16:43.712Z,93144.94
2022-11-19T08:18:06.028Z,93148.47
2022-11-19T08:19:10.741Z,93148.74
2022-11-19T08:20:16.274Z,93131.50
2022-11-19T08:21:19.431Z,93153.89
2022-11-19T08:22:22.712Z,93156.60
2022-11-19T08:23:26.266Z,93157.88
2022-11-19T08:24:29.611Z,93156.88
2022-11-19T08:25:33.056Z,93157.27
2022-11-19T08:26:36.687Z,93158.63
2022-11-19T08:27:39.845Z,93160.05
2022-11-19T08:28:43.247Z,93160.77
2022-11-19T08:29:46.470Z,93165.27
2022-11-19T08:30:49.626Z,93166.81
2022-11-19T08:31:53.403Z,93170.35
2022-11-19T08:32:56.884Z,93171.86
2022-11-19T08:34:01.732Z,93168.80
2022-11-19T08:35:05.102Z,93172.80
2022-11-19T08:36:08.162Z,93171.85
2022-11-19T08:37:13.856Z,93171.08
2022-11-19T08:38:17.046Z,93173.88
2022-11-19T08:39:20.267Z,93173.02
2022-11-19T08:40:23.621Z,93172.89
2022-11-19T08:41:45.852Z,93171.36
2022-11-19T08:43:01.796Z,93171.30
2022-11-19T08:44:05.132Z,93174.02
2022-11-19T08:45:08.489Z,93175.14
2022-11-19T08:46:19.786Z,93166.63
2022-11-19T08:47:22.956Z,93172.65
2022-11-19T08:48:26.184Z,93174.95
2022-11-19T08:49:29.591Z,93177.46
2022-11-19T08:50:32.930Z,93176.44
2022-11-19T08:51:36.481Z,93168.63
2022-11-19T08:52:39.593Z,93180.19
2022-11-19T08:53:42.778Z,93180.05
2022-11-19T08:54:45.906Z,93180.67
2022-11-19T08:55:52.412Z,93183.60
2022-11-19T08:56:57.662Z,93181.87
2022-11-19T08:58:01.988Z,93182.14
2022-11-19T08:59:05.486Z,93182.02
2022-11-19T09:00:09.832Z,93184.87
2022-11-19T09:01:14.085Z,93181.33
2022-11-19T09:02:17.383Z,93182.31
2022-11-19T09:03:20.534Z,93180.48
2022-11-19T09:04:26.445Z,93181.15
2022-11-19T09:05:29.499Z,93185.48
2022-11-19T09:06:35.530Z,93184.00
2022-11-19T09:07:38.794Z,93187.32
2022-11-19T09:08:42.325Z,93189.30
2022-11-19T09:09:45.450Z,93189.39
2022-11-19T09:10:48.613Z,93193.25
2022-11-19T09:11:51.711Z,93195.20
2022-11-19T09:12:54.929Z,93194.34
2022-11-19T09:13:58.392Z,93196.60
2022-11-19T09:15:01.830Z,93197.23
2022-11-19T09:16:05.413Z,93197.46
2022-11-19T09:17:08.555Z,93195.23
2022-11-19T09:18:11.951Z,93196.15
2022-11-19T09:19:15.156Z,93197.91
2022-11-19T09:20:18.285Z,93197.25
2022-11-19T09:21:21.453Z,93195.63
2022-11-19T09:22:24.659Z,93200.36
2022-11-19T09:23:27.988Z,93202.80
2022-11-19T09:24:31.091Z,93201.13
2022-11-19T09:25:34.433Z,93204.59
2022-11-19T09:26:37.551Z,93206.24
2022-11-19T09:27:40.610Z,93209.11
2022-11-19T09:28:46.317Z,93211.98
2022-11-19T09:29:49.621Z,93210.43
2022-11-19T09:31:00.313Z,93209.39
2022-11-19T09:32:03.456Z,93212.38
2022-11-19T09:33:06.646Z,93217.02
2022-11-19T09:34:09.958Z,93216.06
2022-11-19T09:35:14.160Z,93203.66
2022-11-19T09:36:18.588Z,93216.23
2022-11-19T09:37:22.017Z,93216.11
2022-11-19T09:38:25.491Z,93212.46
2022-11-19T09:39:28.630Z,93214.11
2022-11-19T09:40:31.736Z,93216.33
2022-11-19T09:41:43.686Z,93214.59
2022-11-19T09:42:55.418Z,93217.30
2022-11-19T09:44:04.693Z,93211.85
2022-11-19T09:45:17.005Z,93216.13
2022-11-19T09:46:23.420Z,93203.52
2022-11-19T09:47:35.406Z,93217.41
2022-11-19T09:48:39.379Z,93218.92
2022-11-19T09:49:47.363Z,93217.69
2022-11-19T09:51:00.500Z,93214.98
2022-11-19T09:52:07.913Z,93221.31
2022-11-19T09:53:17.776Z,93225.20
2022-11-19T09:54:22.108Z,93224.23
2022-11-19T09:55:33.384Z,93229.27
2022-11-19T09:56:38.657Z,93228.92
2022-11-19T09:57:53.416Z,93229.46
2022-11-19T09:58:57.664Z,93229.21
2022-11-19T10:00:02.410Z,93225.19
2022-11-19T10:01:17.092Z,93219.19
2022-11-19T10:02:23.428Z,93216.35
2022-11-19T10:03:32.823Z,93215.59
2022-11-19T10:04:36.888Z,93215.15
2022-11-19T10:05:58.735Z,93211.14
2022-11-19T10:07:07.611Z,93214.79
2022-11-19T10:08:19.743Z,93208.91
2022-11-19T10:09:26.502Z,93202.42
2022-11-19T10:10:34.344Z,93195.77
2022-11-19T10:11:40.599Z,93199.65
2022-11-19T10:12:46.836Z,93203.29
2022-11-19T10:13:57.032Z,93200.86
2022-11-19T10:15:00.362Z,93204.59
2022-11-19T10:16:16.067Z,93196.59
2022-11-19T10:17:28.671Z,93201.52
2022-11-19T10:18:37.767Z,93205.05
2022-11-19T10:19:47.158Z,93203.21
2022-11-19T10:20:54.352Z,93199.73
2022-11-19T10:22:07.495Z,93198.59
2022-11-19T10:23:13.461Z,93194.63
2022-11-19T10:24:22.355Z,93194.77
2022-11-19T10:25:32.585Z,93194.19
2022-11-19T10:26:39.402Z,93189.08
2022-11-19T10:27:53.758Z,93190.81
2022-11-19T10:28:58.122Z,93193.98
2022-11-19T10:30:06.586Z,93192.33
2022-11-19T10:31:28.704Z,93191.61
2022-11-19T10:32:35.705Z,93189.70
2022-11-19T10:33:44.532Z,93189.49
2022-11-19T10:34:50.685Z,93189.23
2022-11-19T10:36:05.019Z,93189.35
2022-11-19T10:37:10.974Z,93187.66
2022-11-19T10:38:21.194Z,93189.82
2022-11-19T10:39:52.316Z,93191.15
2022-11-19T10:41:02.307Z,93190.98
2022-11-19T10:42:24.254Z,93188.80
2022-11-19T10:43:27.396Z,93187.38
2022-11-19T10:44:43.350Z,93188.48
2022-11-19T10:45:46.581Z,93185.09
2022-11-19T10:46:52.732Z,93185.59
2022-11-19T10:48:04.555Z,93183.48
2022-11-19T10:49:10.927Z,93180.44
2022-11-19T10:50:16.716Z,93182.48
2022-11-19T10:51:20.135Z,93185.55
2022-11-19T10:52:29.146Z,93178.84
2022-11-19T10:53:38.445Z,93183.41
2022-11-19T10:54:41.974Z,93184.02
2022-11-19T10:55:54.512Z,93169.80
2022-11-19T10:57:00.643Z,93181.08
2022-11-19T10:58:07.412Z,93180.11
2022-11-19T10:59:13.504Z,93176.44
2022-11-19T11:00:17.916Z,93177.42
2022-11-19T11:01:27.261Z,93180.89
2022-11-19T11:02:36.568Z,93184.70
2022-11-19T11:04:00.637Z,93180.94
2022-11-19T11:05:09.874Z,93178.42
2022-11-19T11:06:15.622Z,93177.71
2022-11-19T11:07:19.850Z,93173.80
2022-11-19T11:08:23.879Z,93169.69
2022-11-19T11:09:29.728Z,93171.55
2022-11-19T11:10:43.307Z,93170.50
2022-11-19T11:12:05.556Z,93165.41
2022-11-19T11:13:48.546Z,93164.80
2022-11-19T11:14:59.335Z,93167.79
2022-11-19T11:16:10.291Z,93166.75
2022-11-19T11:17:18.872Z,93170.66
2022-11-19T11:18:25.822Z,93169.03
2022-11-19T11:19:29.527Z,93169.11
2022-11-19T11:20:33.510Z,93171.13
2022-11-19T11:21:39.107Z,93168.15
2022-11-19T11:22:42.761Z,93166.62
2022-11-19T11:23:48.726Z,93161.45
2022-11-19T11:24:52.117Z,93161.31
2022-11-19T11:26:12.820Z,93159.37
2022-11-19T11:27:20.902Z,93156.59
2022-11-19T11:28:24.264Z,93151.38
2022-11-19T11:29:27.846Z,93150.82
2022-11-19T11:30:31.089Z,93148.56
2022-11-19T11:31:37.202Z,93148.21
2022-11-19T11:32:44.317Z,93144.67
2022-11-19T11:33:57.046Z,93145.45
2022-11-19T11:35:05.256Z,93143.46
2022-11-19T11:36:20.054Z,93140.92
2022-11-19T11:37:24.357Z,93137.81
2022-11-19T11:38:29.133Z,93137.26
2022-11-19T11:39:37.768Z,93132.78
2022-11-19T11:40:41.090Z,93129.61
2022-11-19T11:43:16.549Z,93131.14
2022-11-19T11:44:21.417Z,93131.02
2022-11-19T11:45:34.591Z,93116.83
2022-11-19T11:46:39.003Z,93129.50
2022-11-19T11:47:42.307Z,93131.15
2022-11-19T11:48:49.352Z,93130.06
2022-11-19T11:50:12.081Z,93132.08
2022-11-19T11:51:29.430Z,93134.17
2022-11-19T11:52:52.586Z,93129.48
2022-11-19T11:54:17.945Z,93130.91
2022-11-19T11:55:24.577Z,93128.70
2022-11-19T11:56:27.946Z,93127.95
2022-11-19T11:57:35.347Z,93126.31
2022-11-19T11:58:39.077Z,93109.09
2022-11-19T11:59:42.894Z,93126.71
2022-11-19T12:00:48.327Z,93130.52
2022-11-19T12:01:56.842Z,93128.31
2022-11-19T12:03:20.590Z,93131.62
2022-11-19T12:04:26.805Z,93129.60
2022-11-19T12:05:58.791Z,93130.78
2022-11-19T12:07:09.966Z,93134.70
2022-11-19T12:08:34.652Z,93135.41
2022-11-19T12:10:05.898Z,93134.90
2022-11-19T12:11:11.194Z,93131.67
2022-11-19T12:12:20.449Z,93129.86
2022-11-19T12:13:56.522Z,93130.27
2022-11-19T12:15:09.293Z,93131.25
2022-11-19T12:16:37.226Z,93128.71
2022-11-19T12:18:01.701Z,93117.57
2022-11-19T12:19:24.709Z,93126.36
2022-11-19T12:20:40.676Z,93135.05
2022-11-19T12:21:46.778Z,93134.90
2022-11-19T12:22:58.613Z,93135.53
2022-11-19T12:24:24.069Z,93136.29
2022-11-19T12:25:31.707Z,93136.70
2022-11-19T12:26:46.416Z,93134.20
2022-11-19T12:28:04.849Z,93136.98
2022-11-19T12:29:18.088Z,93132.31
2022-11-19T12:30:23.923Z,93130.55
2022-11-19T12:31:42.004Z,93126.70
2022-11-19T12:32:50.363Z,93132.48
2022-11-19T12:34:05.143Z,93132.14
2022-11-19T12:35:31.489Z,93123.48
2022-11-19T12:36:57.030Z,93122.48
2022-11-19T12:38:10.958Z,93122.00
2022-11-19T12:39:17.824Z,93121.08
2022-11-19T12:40:39.114Z,93119.09
2022-11-19T12:41:51.721Z,93121.50
2022-11-19T12:43:13.254Z,93122.05
2022-11-19T12:44:19.257Z,93120.77
2022-11-19T12:45:22.666Z,93122.76
2022-11-19T12:46:26.305Z,93125.80
2022-11-19T12:47:40.693Z,93125.35
2022-11-19T12:48:58.225Z,93125.86
2022-11-19T12:50:09.710Z,93121.94
2022-11-19T12:51:19.802Z,93123.71
2022-11-19T12:52:35.792Z,93123.54
2022-11-19T12:53:49.382Z,93110.30
2022-11-19T12:55:09.539Z,93127.60
2022-11-19T12:56:29.061Z,93124.91
2022-11-19T12:57:43.094Z,93126.13
2022-11-19T12:58:58.469Z,93128.27
2022-11-19T13:00:08.722Z,93128.51
2022-11-19T13:01:24.144Z,93125.31
2022-11-19T13:02:34.915Z,93126.67
2022-11-19T13:03:47.639Z,93127.80
2022-11-19T13:05:23.482Z,93127.36
2022-11-19T13:06:47.637Z,93123.55
2022-11-19T13:07:59.329Z,93128.09
2022-11-19T13:09:07.875Z,93125.73
2022-11-19T13:10:38.499Z,93128.55